Time;durP1;ratioP1;P1;durP2;ratioP2;P2;SDS_P1;SDS_P2;PMS_P1;PMS_P2;Temp;Humidity;BMP_temperature;BMP_pressure;BME280_temperature;BME280_humidity;BME280_pressure;Samples;Min_cycle;Max_cycle;Signal;HPM_P1;HPM_P2
2021/10/09 00:01:16;;;;;;;;;;;;;;;18.30;100.00;100294.91;5042148;28;20039;-84
2021/10/09 00:03:43;;;;;;;;;;;;;;;18.40;100.00;100291.81;5019742;28;19994;-85
2021/10/09 00:06:10;;;;;;;;;;;;;;;17.55;100.00;100292.47;5055167;28;20011;-84
2021/10/09 00:08:37;;;;;;;;;;;;;;;18.13;100.00;100293.38;5056426;28;19928;-84
2021/10/09 00:11:06;;;;;;;;;;;;;;;18.31;100.00;100297.28;5056220;28;19928;-84
2021/10/09 00:13:33;;;;;;;;;;;;;;;18.50;100.00;100285.06;5060144;28;19928;-84
2021/10/09 00:16:00;;;;;;;;;;;;;;;18.51;100.00;100292.28;5061516;28;19963;-84
2021/10/09 00:18:28;;;;;;;;;;;;;;;18.49;100.00;100277.81;5021758;28;19925;-84
2021/10/09 00:20:56;;;;;;;;;;;;;;;18.43;100.00;100290.94;5055778;28;19946;-85
2021/10/09 00:23:23;;;;;;;;;;;;;;;18.42;100.00;100277.22;5025616;28;19929;-84
2021/10/09 00:25:51;;;;;;;;;;;;;;;18.16;100.00;100281.94;5055968;28;20372;-84
2021/10/09 00:28:18;;;;;;;;;;;;;;;18.38;100.00;100280.16;5073383;28;20272;-84
2021/10/09 00:30:45;;;;;;;;;;;;;;;17.40;100.00;100291.19;5031842;28;20299;-84
2021/10/09 00:33:12;;;;;;;;;;;;;;;17.65;100.00;100286.53;5019718;28;20399;-84
2021/10/09 00:35:40;;;;;;;;;;;;;;;17.79;100.00;100291.84;5051393;28;20292;-84
2021/10/09 00:38:07;;;;;;;;;;;;;;;18.18;100.00;100290.78;5055472;28;20287;-84
2021/10/09 00:40:34;;;;;;;;;;;;;;;18.42;100.00;100283.66;5041549;28;19925;-84
2021/10/09 00:43:02;;;;;;;;;;;;;;;17.95;100.00;100282.50;5041654;28;19928;-84
2021/10/09 00:45:29;;;;;;;;;;;;;;;17.60;100.00;100289.09;5042916;28;20307;-84
2021/10/09 00:47:57;;;;;;;;;;;;;;;17.39;100.00;100289.56;5059057;28;20403;-84
2021/10/09 00:50:23;;;;;;;;;;;;;;;16.93;100.00;100296.31;5042481;28;20030;-84
2021/10/09 00:52:51;;;;;;;;;;;;;;;18.12;100.00;100291.75;5038937;28;20399;-84
2021/10/09 00:55:19;;;;;;;;;;;;;;;18.23;100.00;100290.25;5016976;28;20383;-84
2021/10/09 00:57:47;;;;;;;;;;;;;;;18.29;100.00;100285.63;5026505;28;20415;-84
2021/10/09 01:00:15;;;;;;;;;;;;;;;18.43;100.00;100285.28;5039292;28;20299;-84
2021/10/09 01:02:41;;;;;;;;;;;;;;;18.67;100.00;100278.09;5070930;28;19954;-84
2021/10/09 01:05:09;;;;;;;;;;;;;;;18.80;100.00;100280.94;5059470;28;19931;-84
2021/10/09 01:07:36;;;;;;;;;;;;;;;18.65;100.00;100277.75;5059431;28;19983;-85
2021/10/09 01:10:04;;;;;;;;;;;;;;;17.96;100.00;100286.97;5042555;28;19925;-84
2021/10/09 01:12:34;;;;;;;;;;;;;;;18.08;100.00;100286.22;5014520;28;19924;-85
2021/10/09 01:15:21;;;;;;;;;;;;;;;18.35;100.00;100285.88;5040884;28;19925;-84
2021/10/09 01:17:51;;;;;;;;;;;;;;;18.71;100.00;100283.63;5058873;28;19924;-84
2021/10/09 01:20:19;;;;;;;;;;;;;;;18.81;100.00;100286.13;5023303;28;20382;-85
2021/10/09 01:22:48;;;;;;;;;;;;;;;18.90;100.00;100280.59;5034289;28;19924;-85
2021/10/09 01:25:18;;;;;;;;;;;;;;;18.95;100.00;100282.88;5055438;28;19964;-85
2021/10/09 01:27:45;;;;;;;;;;;;;;;18.78;100.00;100284.22;5050491;28;19924;-85
2021/10/09 01:30:12;;;;;;;;;;;;;;;18.36;100.00;100271.28;5055368;28;19925;-85
2021/10/09 01:32:40;;;;;;;;;;;;;;;18.60;100.00;100272.63;5036361;28;19974;-85
2021/10/09 01:35:08;;;;;;;;;;;;;;;18.77;100.00;100274.13;5034332;28;19924;-85
2021/10/09 01:37:39;;;;;;;;;;;;;;;18.81;100.00;100265.56;5025725;28;19924;-85
2021/10/09 01:40:07;;;;;;;;;;;;;;;18.86;100.00;100268.59;5047548;28;20396;-85
2021/10/09 01:42:38;;;;;;;;;;;;;;;18.83;100.00;100263.03;5041071;28;20003;-85
2021/10/09 01:45:07;;;;;;;;;;;;;;;18.90;100.00;100257.94;5041449;28;20019;-85
2021/10/09 01:47:38;;;;;;;;;;;;;;;18.64;100.00;100259.19;5041494;28;19930;-85
2021/10/09 01:50:07;;;;;;;;;;;;;;;18.58;100.00;100257.34;5041705;28;19925;-85
2021/10/09 01:52:34;;;;;;;;;;;;;;;18.46;100.00;100258.09;5027349;28;20284;-85
2021/10/09 01:55:01;;;;;;;;;;;;;;;18.57;100.00;100256.53;5058426;28;19924;-85
2021/10/09 01:57:28;;;;;;;;;;;;;;;18.05;100.00;100258.03;5041926;28;19924;-85
2021/10/09 01:59:55;;;;;;;;;;;;;;;18.45;100.00;100254.47;5040915;28;19956;-85
2021/10/09 02:02:28;;;;;;;;;;;;;;;18.65;100.00;100251.47;5068327;28;19948;-85
2021/10/09 02:04:56;;;;;;;;;;;;;;;18.69;100.00;100252.94;5052910;28;20383;-85
2021/10/09 02:07:25;;;;;;;;;;;;;;;18.75;100.00;100253.97;5033868;28;19932;-85
2021/10/09 02:09:55;;;;;;;;;;;;;;;18.77;100.00;100254.31;5091285;28;19924;-85
2021/10/09 02:12:24;;;;;;;;;;;;;;;18.91;100.00;100253.09;5040961;28;20299;-85
2021/10/09 02:15:07;;;;;;;;;;;;;;;18.76;100.00;100251.94;5043824;28;20005;-85
2021/10/09 02:25:53;;;;;;;;;;;;;;;18.38;100.00;100245.38;5047832;28;19975;-85
2021/10/09 02:28:21;;;;;;;;;;;;;;;17.60;100.00;100250.31;5057819;28;19924;-85
2021/10/09 02:30:50;;;;;;;;;;;;;;;17.88;100.00;100249.59;5057536;28;19924;-85
2021/10/09 02:33:20;;;;;;;;;;;;;;;17.72;100.00;100246.78;5041055;28;19932;-85
2021/10/09 02:35:47;;;;;;;;;;;;;;;17.95;100.00;100242.94;5024543;28;19924;-85
2021/10/09 02:38:16;;;;;;;;;;;;;;;17.70;100.00;100237.16;5041560;28;19936;-85
2021/10/09 02:40:43;;;;;;;;;;;;;;;17.04;100.00;100248.84;5041862;28;19928;-85
2021/10/09 02:43:12;;;;;;;;;;;;;;;17.25;100.00;100242.69;5025448;28;19931;-85
2021/10/09 02:45:39;;;;;;;;;;;;;;;17.43;100.00;100234.59;5011134;28;19961;-84
2021/10/09 02:48:08;;;;;;;;;;;;;;;17.19;100.00;100241.63;5075540;28;19924;-84
2021/10/09 02:50:42;;;;;;;;;;;;;;;17.69;100.00;100235.56;5075791;28;19924;-85
2021/10/09 02:53:12;;;;;;;;;;;;;;;18.24;100.00;100234.44;5058740;28;20249;-84
2021/10/09 02:55:39;;;;;;;;;;;;;;;18.01;100.00;100235.50;5058484;28;19932;-85
2021/10/09 02:58:07;;;;;;;;;;;;;;;18.12;100.00;100226.72;5024464;28;19924;-85
2021/10/09 03:00:34;;;;;;;;;;;;;;;18.29;100.00;100228.25;5057790;28;19933;-85
2021/10/09 03:03:01;;;;;;;;;;;;;;;18.50;100.00;100234.13;5038268;28;20019;-85
2021/10/09 03:05:29;;;;;;;;;;;;;;;18.67;100.00;100223.50;5020365;28;20016;-85
2021/10/09 03:07:56;;;;;;;;;;;;;;;18.71;100.00;100227.00;5051515;28;19924;-85
2021/10/09 03:10:24;;;;;;;;;;;;;;;18.65;100.00;100221.13;5046270;28;19958;-85
2021/10/09 03:12:51;;;;;;;;;;;;;;;18.58;100.00;100229.84;5020774;28;19968;-85
2021/10/09 03:15:18;;;;;;;;;;;;;;;18.67;100.00;100227.13;5028009;28;20398;-85
2021/10/09 03:17:45;;;;;;;;;;;;;;;18.69;100.00;100227.47;5025209;28;19931;-85
2021/10/09 03:20:13;;;;;;;;;;;;;;;18.75;100.00;100222.81;5057144;28;19924;-85
2021/10/09 03:22:40;;;;;;;;;;;;;;;18.64;100.00;100221.56;5040746;28;19925;-85
2021/10/09 03:25:12;;;;;;;;;;;;;;;18.70;100.00;100214.91;5040596;28;20435;-85
2021/10/09 03:27:39;;;;;;;;;;;;;;;18.74;100.00;100218.41;5057237;28;19931;-85
2021/10/09 03:30:07;;;;;;;;;;;;;;;18.89;100.00;100216.72;5040624;28;19928;-85
2021/10/09 03:32:36;;;;;;;;;;;;;;;18.90;100.00;100209.81;5040221;28;19931;-85
2021/10/09 03:35:05;;;;;;;;;;;;;;;18.77;100.00;100206.19;5024319;28;19932;-85
2021/10/09 03:37:34;;;;;;;;;;;;;;;18.37;100.00;100215.50;5040985;28;19924;-85
2021/10/09 03:40:05;;;;;;;;;;;;;;;18.64;100.00;100201.75;5039146;28;20368;-85
2021/10/09 03:42:41;;;;;;;;;;;;;;;18.90;100.00;100201.31;5040680;28;19931;-84
2021/10/09 03:53:09;;;;;;;;;;;;;;;18.50;100.00;100200.16;5056658;28;19974;-85
2021/10/09 03:55:37;;;;;;;;;;;;;;;18.67;100.00;100201.66;5023361;28;19928;-85
2021/10/09 03:58:04;;;;;;;;;;;;;;;18.80;100.00;100202.44;5009415;28;19951;-85
2021/10/09 04:00:34;;;;;;;;;;;;;;;18.69;100.00;100199.16;5040009;28;19973;-85
2021/10/09 04:03:03;;;;;;;;;;;;;;;18.74;100.00;100201.44;5040455;28;19932;-85
2021/10/09 04:05:31;;;;;;;;;;;;;;;18.63;100.00;100206.63;5056460;28;19925;-85
2021/10/09 04:07:58;;;;;;;;;;;;;;;18.70;100.00;100203.59;5040494;28;20019;-85
2021/10/09 04:10:25;;;;;;;;;;;;;;;18.52;100.00;100206.16;5025937;28;19928;-85
2021/10/09 04:12:55;;;;;;;;;;;;;;;18.32;100.00;100199.84;5045600;28;19925;-85
2021/10/09 04:15:24;;;;;;;;;;;;;;;18.45;100.00;100202.75;5020478;28;19925;-85
2021/10/09 04:17:51;;;;;;;;;;;;;;;18.54;100.00;100205.72;5056394;28;19928;-85
2021/10/09 04:20:18;;;;;;;;;;;;;;;18.64;100.00;100210.25;5056822;28;19924;-85
2021/10/09 04:22:48;;;;;;;;;;;;;;;18.61;100.00;100220.44;5020229;28;20376;-85
2021/10/09 04:25:16;;;;;;;;;;;;;;;18.64;100.00;100210.25;5047187;28;19929;-85
2021/10/09 04:27:43;;;;;;;;;;;;;;;18.83;100.00;100207.22;5059122;28;19928;-85
2021/10/09 04:30:11;;;;;;;;;;;;;;;18.82;100.00;100214.13;5024000;28;19930;-85
2021/10/09 04:32:38;;;;;;;;;;;;;;;18.80;100.00;100205.28;5022893;28;19932;-85
2021/10/09 04:35:07;;;;;;;;;;;;;;;18.50;100.00;100211.47;5056396;28;20186;-85
2021/10/09 04:37:34;;;;;;;;;;;;;;;18.32;100.00;100210.38;5009409;28;20291;-85
2021/10/09 04:40:02;;;;;;;;;;;;;;;18.64;100.00;100208.22;5022269;28;20023;-85
2021/10/09 04:42:35;;;;;;;;;;;;;;;18.81;100.00;100209.69;5055660;28;19931;-85
2021/10/09 04:45:03;;;;;;;;;;;;;;;18.72;100.00;100217.28;5039484;28;20435;-85
2021/10/09 04:47:33;;;;;;;;;;;;;;;18.57;100.00;100216.13;5025521;28;20016;-85
2021/10/09 04:50:02;;;;;;;;;;;;;;;18.62;100.00;100210.69;5039526;28;19924;-85
2021/10/09 04:52:29;;;;;;;;;;;;;;;18.75;100.00;100205.84;5042563;28;19990;-85
2021/10/09 04:54:58;;;;;;;;;;;;;;;18.53;100.00;100216.22;5039303;28;19956;-85
2021/10/09 04:57:33;;;;;;;;;;;;;;;18.67;100.00;100215.00;5019314;28;19935;-85
2021/10/09 05:00:23;;;;;;;;;;;;;;;18.75;100.00;100211.50;5055774;28;19928;-85
2021/10/09 05:02:51;;;;;;;;;;;;;;;18.85;100.00;100206.75;5055752;28;19925;-84
2021/10/09 05:05:18;;;;;;;;;;;;;;;18.82;100.00;100208.47;5055730;28;20031;-85
2021/10/09 05:07:50;;;;;;;;;;;;;;;18.74;100.00;100209.91;5039436;28;19946;-85
2021/10/09 05:10:19;;;;;;;;;;;;;;;18.46;100.00;100213.63;5022375;28;20058;-85
2021/10/09 05:13:01;;;;;;;;;;;;;;;18.32;100.00;100216.03;5024245;28;19929;-85
2021/10/09 05:15:28;;;;;;;;;;;;;;;18.67;100.00;100215.81;5038738;28;19932;-85
2021/10/09 05:17:57;;;;;;;;;;;;;;;18.33;100.00;100207.09;5039170;28;20015;-85
2021/10/09 05:20:24;;;;;;;;;;;;;;;18.62;100.00;100207.88;5018894;28;19925;-85
2021/10/09 05:22:51;;;;;;;;;;;;;;;18.46;100.00;100210.78;5021326;28;19925;-85
2021/10/09 05:25:19;;;;;;;;;;;;;;;18.34;100.00;100208.69;5068273;28;20397;-85
2021/10/09 05:28:01;;;;;;;;;;;;;;;18.63;100.00;100208.66;5029844;28;19951;-85
2021/10/09 05:30:33;;;;;;;;;;;;;;;18.55;100.00;100205.25;5041444;28;19974;-85
2021/10/09 05:35:47;;;;;;;;;;;;;;;18.37;100.00;100207.84;5054594;28;20368;-85
2021/10/09 05:38:15;;;;;;;;;;;;;;;17.64;100.00;100211.47;5050713;28;19924;-85
2021/10/09 05:40:43;;;;;;;;;;;;;;;17.94;100.00;100208.22;5025514;28;20367;-84
2021/10/09 05:43:11;;;;;;;;;;;;;;;18.25;100.00;100208.53;5038136;28;20419;-86
2021/10/09 05:45:38;;;;;;;;;;;;;;;18.36;100.00;100205.44;5038033;28;19940;-86
2021/10/09 05:48:07;;;;;;;;;;;;;;;18.41;100.00;100213.38;5042091;28;20419;-86
2021/10/09 05:59:01;;;;;;;;;;;;;;;18.52;100.00;100208.19;5044995;28;20438;-84
2021/10/09 06:43:42;;;;;;;;;;;;;;;18.93;100.00;100244.94;5006626;28;19936;-85
2021/10/09 06:49:13;;;;;;;;;;;;;;;19.04;100.00;100249.00;5009316;28;20028;-84
2021/10/09 06:59:59;;;;;;;;;;;;;;;18.47;100.00;100249.16;5006841;28;19930;-84
2021/10/09 07:02:27;;;;;;;;;;;;;;;18.69;100.00;100252.94;5002655;28;19933;-84
2021/10/09 07:04:54;;;;;;;;;;;;;;;18.87;100.00;100258.84;5011185;28;19926;-84
2021/10/09 07:07:21;;;;;;;;;;;;;;;18.79;100.00;100251.03;5070922;28;19925;-84
2021/10/09 07:09:56;;;;;;;;;;;;;;;19.03;100.00;100260.81;5039147;28;19925;-84
2021/10/09 07:12:29;;;;;;;;;;;;;;;19.06;100.00;100260.69;5055671;28;19924;-84
2021/10/09 07:14:56;;;;;;;;;;;;;;;19.20;100.00;100254.59;5039146;28;19924;-84
2021/10/09 07:17:25;;;;;;;;;;;;;;;19.16;100.00;100253.88;5022734;28;19925;-84
2021/10/09 07:19:53;;;;;;;;;;;;;;;18.97;100.00;100252.09;5052553;28;20444;-85
2021/10/09 07:22:20;;;;;;;;;;;;;;;18.26;100.00;100263.09;5035342;28;19931;-84
2021/10/09 07:25:07;;;;;;;;;;;;;;;18.68;100.00;100261.88;5067429;28;20349;-84
2021/10/09 07:27:36;;;;;;;;;;;;;;;19.01;100.00;100263.28;5064239;28;19929;-83
2021/10/09 07:30:04;;;;;;;;;;;;;;;19.16;100.00;100265.22;5052059;28;20380;-83
2021/10/09 07:32:31;;;;;;;;;;;;;;;19.30;100.00;100264.00;5055506;28;19931;-84
2021/10/09 07:34:58;;;;;;;;;;;;;;;19.32;100.00;100268.00;5051996;28;20388;-84
2021/10/09 07:37:25;;;;;;;;;;;;;;;19.40;100.00;100266.50;5050503;28;19928;-83
2021/10/09 07:39:53;;;;;;;;;;;;;;;19.09;100.00;100262.63;5029597;28;19924;-84
2021/10/09 07:42:20;;;;;;;;;;;;;;;18.92;100.00;100263.97;5038301;28;19931;-85
2021/10/09 07:44:49;;;;;;;;;;;;;;;18.97;100.00;100263.41;5038735;28;19968;-86
2021/10/09 07:47:17;;;;;;;;;;;;;;;18.65;100.00;100272.06;5069426;28;19929;-84
2021/10/09 07:49:44;;;;;;;;;;;;;;;18.57;100.00;100279.19;5037906;28;19924;-84
2021/10/09 07:52:11;;;;;;;;;;;;;;;18.89;100.00;100278.22;5072102;28;19924;-85
2021/10/09 07:54:43;;;;;;;;;;;;;;;19.14;100.00;100272.59;5037091;28;19932;-86
2021/10/09 07:57:15;;;;;;;;;;;;;;;19.25;100.00;100273.06;5055365;28;20407;-86
2021/10/09 07:59:42;;;;;;;;;;;;;;;19.08;100.00;100275.22;5045620;28;19930;-85
2021/10/09 08:02:09;;;;;;;;;;;;;;;19.12;100.00;100278.72;5045869;28;19924;-85
2021/10/09 08:04:39;;;;;;;;;;;;;;;18.53;100.00;100278.50;5062025;28;19924;-84
2021/10/09 08:07:06;;;;;;;;;;;;;;;18.85;100.00;100284.00;5081052;28;19928;-86
2021/10/09 08:09:35;;;;;;;;;;;;;;;19.18;100.00;100284.59;5034910;28;19974;-89
2021/10/09 08:12:03;;;;;;;;;;;;;;;19.40;100.00;100286.31;5042351;28;20008;-87
2021/10/09 08:14:30;;;;;;;;;;;;;;;19.45;100.00;100288.59;5048400;28;19956;-86
2021/10/09 08:16:57;;;;;;;;;;;;;;;19.59;100.00;100293.81;5049507;28;19975;-87
2021/10/09 08:19:25;;;;;;;;;;;;;;;19.72;100.00;100285.25;5064815;28;19924;-88
2021/10/09 08:21:53;;;;;;;;;;;;;;;19.80;100.00;100291.50;5048501;28;19932;-85
2021/10/09 08:24:43;;;;;;;;;;;;;;;19.92;100.00;100287.84;5008469;28;19932;-89
2021/10/09 08:27:40;;;;;;;;;;;;;;;19.96;100.00;100299.88;5060235;28;20376;-86
2021/10/09 08:36:02;;;;;;;;;;;;;;;20.03;100.00;100299.59;4962867;28;19985;-86
2021/10/09 08:41:15;;;;;;;;;;;;;;;19.07;100.00;100295.47;4963091;28;19926;-87
2021/10/09 08:43:46;;;;;;;;;;;;;;;19.48;100.00;100296.19;4961819;28;19932;-93
2021/10/09 08:46:13;;;;;;;;;;;;;;;19.92;100.00;100293.53;4956990;28;19926;-92
2021/10/09 08:48:43;;;;;;;;;;;;;;;20.13;100.00;100296.44;4959580;28;20373;-93
2021/10/09 08:51:10;;;;;;;;;;;;;;;20.27;100.00;100292.28;4944132;28;19926;-93
2021/10/09 08:53:38;;;;;;;;;;;;;;;20.33;100.00;100298.97;4992624;28;19925;-93
2021/10/09 08:56:05;;;;;;;;;;;;;;;20.31;100.00;100287.28;4960809;28;19926;-94
2021/10/09 08:58:34;;;;;;;;;;;;;;;20.38;100.00;100292.69;4977029;28;20297;-94
2021/10/09 09:03:55;;;;;;;;;;;;;;;20.25;100.00;100295.59;4991124;28;19947;-87
2021/10/09 09:40:09;;;;;;;;;;;;;;;19.79;100.00;100313.41;5014720;28;20370;-85
2021/10/09 09:42:42;;;;;;;;;;;;;;;20.07;100.00;100305.97;4996451;28;19932;-85
2021/10/09 09:45:13;;;;;;;;;;;;;;;19.87;100.00;100302.59;5010353;28;19933;-85
2021/10/09 09:47:41;;;;;;;;;;;;;;;19.62;100.00;100304.25;4982052;28;20403;-86
2021/10/09 09:50:09;;;;;;;;;;;;;;;19.44;100.00;100304.03;5004915;28;19968;-84
2021/10/09 09:52:40;;;;;;;;;;;;;;;20.07;100.00;100308.81;5019734;28;19925;-84
2021/10/09 09:55:09;;;;;;;;;;;;;;;20.65;100.00;100301.44;4997608;28;20390;-84
2021/10/09 09:57:36;;;;;;;;;;;;;;;20.78;100.00;100299.31;4997698;28;20373;-84
2021/10/09 10:00:05;;;;;;;;;;;;;;;20.88;100.00;100295.28;5013646;28;20084;-84
2021/10/09 10:02:39;;;;;;;;;;;;;;;21.10;100.00;100296.06;5013728;28;20060;-84
2021/10/09 10:05:06;;;;;;;;;;;;;;;21.27;100.00;100291.72;5008899;28;20324;-85
2021/10/09 10:07:37;;;;;;;;;;;;;;;21.04;100.00;100295.06;5004187;28;20300;-85
2021/10/09 10:10:04;;;;;;;;;;;;;;;21.35;100.00;100293.81;5087288;28;19931;-88
2021/10/09 10:12:32;;;;;;;;;;;;;;;21.60;100.00;100286.34;5038163;28;20309;-88
2021/10/09 10:15:04;;;;;;;;;;;;;;;21.57;100.00;100279.50;5040217;28;20466;-88
2021/10/09 10:17:35;;;;;;;;;;;;;;;21.88;100.00;100288.00;5055286;28;20294;-87
2021/10/09 10:20:02;;;;;;;;;;;;;;;21.54;100.00;100288.97;5040827;28;19925;-88
2021/10/09 10:22:50;;;;;;;;;;;;;;;20.93;100.00;100295.44;5024719;28;20367;-88
2021/10/09 10:25:21;;;;;;;;;;;;;;;21.45;100.00;100280.41;5075215;28;19928;-87
2021/10/09 10:27:57;;;;;;;;;;;;;;;21.71;100.00;100284.63;5040535;28;19947;-88
2021/10/09 10:30:25;;;;;;;;;;;;;;;21.93;100.00;100281.69;5056695;28;19936;-89
2021/10/09 10:32:57;;;;;;;;;;;;;;;21.90;100.00;100282.63;5024638;28;20410;-87
2021/10/09 10:35:30;;;;;;;;;;;;;;;21.52;100.00;100288.69;5041247;28;19925;-88
2021/10/09 10:38:04;;;;;;;;;;;;;;;21.70;100.00;100279.41;5040697;28;20295;-87
2021/10/09 10:40:46;;;;;;;;;;;;;;;21.52;100.00;100280.16;5041048;28;19990;-87
2021/10/09 10:46:01;;;;;;;;;;;;;;;20.57;100.00;100283.09;5057090;28;19928;-84
2021/10/09 10:48:54;;;;;;;;;;;;;;;20.15;100.00;100287.47;5032748;28;20384;-86
2021/10/09 10:51:36;;;;;;;;;;;;;;;19.23;100.00;100290.50;5051178;28;20604;-88
2021/10/09 10:54:09;;;;;;;;;;;;;;;19.76;100.00;100294.47;5025602;28;19932;-84
2021/10/09 10:57:01;;;;;;;;;;;;;;;20.41;100.00;100294.63;5036519;28;19925;-87
2021/10/09 10:59:32;;;;;;;;;;;;;;;20.83;100.00;100288.16;5013248;28;20413;-88
2021/10/09 11:02:08;;;;;;;;;;;;;;;21.02;100.00;100286.25;5049969;28;19929;-86
2021/10/09 11:04:36;;;;;;;;;;;;;;;21.23;100.00;100288.25;5037087;28;19932;-88
2021/10/09 11:07:03;;;;;;;;;;;;;;;21.29;100.00;100294.91;5083401;28;19947;-87
2021/10/09 11:09:31;;;;;;;;;;;;;;;21.36;100.00;100284.03;5057263;28;19931;-87
2021/10/09 11:11:58;;;;;;;;;;;;;;;21.56;100.00;100285.66;5083499;28;19928;-87
2021/10/09 11:14:26;;;;;;;;;;;;;;;21.51;100.00;100287.06;5067831;28;19924;-90
2021/10/09 11:17:00;;;;;;;;;;;;;;;21.57;100.00;100281.59;5075744;28;19930;-85
2021/10/09 11:19:46;;;;;;;;;;;;;;;21.53;100.00;100276.03;5113232;28;19923;-90
2021/10/09 11:22:15;;;;;;;;;;;;;;;21.46;100.00;100276.34;5076804;28;20367;-90
2021/10/09 11:24:44;;;;;;;;;;;;;;;21.48;100.00;100282.31;5073659;28;19931;-82
2021/10/09 11:27:12;;;;;;;;;;;;;;;21.57;100.00;100279.50;5075481;28;20391;-83
2021/10/09 11:29:40;;;;;;;;;;;;;;;21.50;100.00;100276.97;5087044;28;19928;-81
2021/10/09 11:32:08;;;;;;;;;;;;;;;21.56;100.00;100275.09;5060906;28;19924;-87
2021/10/09 11:34:51;;;;;;;;;;;;;;;21.50;100.00;100270.47;5056213;28;20379;-86
2021/10/09 11:37:19;;;;;;;;;;;;;;;21.30;100.00;100276.56;5076260;28;19935;-86
2021/10/09 11:39:48;;;;;;;;;;;;;;;21.07;100.00;100274.25;5071540;28;19924;-86
2021/10/09 11:42:18;;;;;;;;;;;;;;;20.62;100.00;100288.16;5066967;28;19928;-86
2021/10/09 11:45:07;;;;;;;;;;;;;;;20.73;100.00;100285.72;5050966;28;19975;-86
2021/10/09 11:56:04;;;;;;;;;;;;;;;21.52;100.00;100274.47;5059573;28;20026;-86
2021/10/09 11:58:32;;;;;;;;;;;;;;;21.37;100.00;100274.22;5072655;28;19931;-90
2021/10/09 12:01:02;;;;;;;;;;;;;;;21.34;100.00;100268.72;5072629;28;19931;-88
2021/10/09 12:03:31;;;;;;;;;;;;;;;21.56;100.00;100274.28;5081537;28;19973;-86
2021/10/09 12:05:59;;;;;;;;;;;;;;;21.57;100.00;100265.28;5059080;28;19924;-88
2021/10/09 12:08:27;;;;;;;;;;;;;;;21.65;100.00;100277.97;5066266;28;19928;-88
2021/10/09 12:11:09;;;;;;;;;;;;;;;21.58;100.00;100272.56;5074341;28;19929;-85
2021/10/09 12:13:50;;;;;;;;;;;;;;;21.67;100.00;100269.75;5071498;28;19947;-87
2021/10/09 12:16:25;;;;;;;;;;;;;;;21.79;100.00;100271.72;5073659;28;20439;-86
2021/10/09 12:18:54;;;;;;;;;;;;;;;21.81;100.00;100266.31;5070812;28;20379;-85
2021/10/09 12:21:22;;;;;;;;;;;;;;;21.79;100.00;100265.22;5080759;28;19924;-86
2021/10/09 12:23:50;;;;;;;;;;;;;;;21.90;100.00;100257.78;5105527;28;19932;-86
2021/10/09 12:26:18;;;;;;;;;;;;;;;22.02;100.00;100256.88;5089823;28;20022;-87
2021/10/09 12:29:04;;;;;;;;;;;;;;;21.42;100.00;100259.41;5066367;28;19924;-89
2021/10/09 12:31:32;;;;;;;;;;;;;;;21.71;100.00;100244.78;5049705;28;19935;-87
2021/10/09 12:33:59;;;;;;;;;;;;;;;21.77;100.00;100251.47;5088691;28;20283;-89
2021/10/09 12:36:33;;;;;;;;;;;;;;;21.39;100.00;100248.16;5062915;28;19924;-86
2021/10/09 12:39:20;;;;;;;;;;;;;;;21.62;100.00;100243.97;5096244;28;20057;-84
2021/10/09 12:41:52;;;;;;;;;;;;;;;21.31;100.00;100258.28;5055712;28;20326;-90
2021/10/09 12:44:19;;;;;;;;;;;;;;;20.99;100.00;100253.06;5058088;28;19928;-81
2021/10/09 12:46:47;;;;;;;;;;;;;;;20.68;100.00;100255.88;5081588;28;19924;-86
2021/10/09 12:49:14;;;;;;;;;;;;;;;20.36;100.00;100259.09;5095458;28;20394;-84
2021/10/09 12:51:42;;;;;;;;;;;;;;;20.63;100.00;100264.19;5077620;28;20004;-84
2021/10/09 12:54:09;;;;;;;;;;;;;;;20.74;100.00;100248.31;5066452;28;19928;-83
2021/10/09 12:56:37;;;;;;;;;;;;;;;21.20;100.00;100240.84;5059918;28;19924;-86
2021/10/09 12:59:04;;;;;;;;;;;;;;;21.55;100.00;100241.44;5082992;28;19925;-86
2021/10/09 13:01:32;;;;;;;;;;;;;;;21.50;100.00;100242.84;5041893;28;19939;-86
2021/10/09 13:03:59;;;;;;;;;;;;;;;21.76;100.00;100238.53;5076996;28;19924;-88
2021/10/09 13:06:55;;;;;;;;;;;;;;;21.64;100.00;100235.78;5028734;28;19931;-87
2021/10/09 13:09:22;;;;;;;;;;;;;;;21.35;100.00;100236.97;5076042;28;19924;-86
2021/10/09 13:11:58;;;;;;;;;;;;;;;21.23;100.00;100242.75;5086789;28;19928;-86
2021/10/09 13:14:25;;;;;;;;;;;;;;;21.58;100.00;100229.91;5107269;28;19930;-91
2021/10/09 13:17:17;;;;;;;;;;;;;;;21.91;100.00;100228.09;5043697;28;19924;-91
2021/10/09 13:19:45;;;;;;;;;;;;;;;21.69;100.00;100232.31;5080153;28;19931;-91
2021/10/09 13:22:12;;;;;;;;;;;;;;;22.11;100.00;100230.47;5050709;28;19924;-91
2021/10/09 13:24:39;;;;;;;;;;;;;;;22.19;100.00;100232.53;5042057;28;19928;-90
2021/10/09 13:27:06;;;;;;;;;;;;;;;22.40;100.00;100225.84;5093347;28;20056;-91
2021/10/09 13:29:33;;;;;;;;;;;;;;;22.55;100.00;100220.34;5043583;28;19924;-90
2021/10/09 13:32:00;;;;;;;;;;;;;;;22.61;100.00;100219.22;5042599;28;19934;-91
2021/10/09 13:34:27;;;;;;;;;;;;;;;22.38;100.00;100216.22;5060478;28;19974;-91
2021/10/09 13:36:54;;;;;;;;;;;;;;;22.55;100.00;100221.13;5086931;28;19935;-87
2021/10/09 13:39:22;;;;;;;;;;;;;;;22.60;100.00;100219.69;5103246;28;19931;-90
2021/10/09 13:41:49;;;;;;;;;;;;;;;22.25;100.00;100213.53;5075975;28;19924;-88
2021/10/09 13:44:16;;;;;;;;;;;;;;;22.59;100.00;100213.22;5097060;28;19924;-89
2021/10/09 13:46:44;;;;;;;;;;;;;;;22.44;100.00;100209.41;5066104;28;19959;-87
2021/10/09 13:49:12;;;;;;;;;;;;;;;22.49;100.00;100208.75;5060934;28;19930;-87
2021/10/09 13:51:39;;;;;;;;;;;;;;;22.60;100.00;100206.25;5064219;28;19935;-86
2021/10/09 13:54:06;;;;;;;;;;;;;;;22.56;100.00;100204.84;5096460;28;19924;-86
2021/10/09 13:56:33;;;;;;;;;;;;;;;22.59;100.00;100203.88;5077488;28;19931;-86
2021/10/09 13:59:00;;;;;;;;;;;;;;;22.63;100.00;100202.44;5067840;28;20276;-86
2021/10/09 14:01:38;;;;;;;;;;;;;;;22.57;100.00;100207.19;5090303;28;19925;-86
2021/10/09 14:04:06;;;;;;;;;;;;;;;22.59;100.00;100204.69;5067667;28;19924;-86
2021/10/09 14:06:33;;;;;;;;;;;;;;;22.63;100.00;100204.47;5046979;28;19925;-87
2021/10/09 14:09:00;;;;;;;;;;;;;;;22.31;100.00;100199.47;5080542;28;19932;-86
2021/10/09 14:11:29;;;;;;;;;;;;;;;22.39;100.00;100200.72;5043939;28;19935;-88
2021/10/09 14:13:56;;;;;;;;;;;;;;;22.13;100.00;100200.25;5066424;28;19924;-88
2021/10/09 14:16:23;;;;;;;;;;;;;;;22.25;100.00;100199.31;5025379;28;19931;-91
2021/10/09 14:18:51;;;;;;;;;;;;;;;22.33;100.00;100192.03;5050565;28;19925;-87
2021/10/09 14:21:19;;;;;;;;;;;;;;;22.51;100.00;100192.03;5082851;28;19931;-87
2021/10/09 14:23:46;;;;;;;;;;;;;;;22.49;100.00;100191.66;5054119;28;19939;-88
2021/10/09 14:26:13;;;;;;;;;;;;;;;22.65;100.00;100185.66;5066204;28;19924;-90
2021/10/09 14:28:40;;;;;;;;;;;;;;;22.74;100.00;100184.84;5089993;28;20128;-88
2021/10/09 14:31:07;;;;;;;;;;;;;;;22.87;100.00;100186.22;5087667;28;19928;-88
2021/10/09 14:33:35;;;;;;;;;;;;;;;22.70;100.00;100182.16;5084301;28;20299;-88
2021/10/09 14:36:02;;;;;;;;;;;;;;;22.35;100.00;100183.81;5087167;28;19971;-89
2021/10/09 14:38:29;;;;;;;;;;;;;;;22.51;100.00;100189.19;5052568;28;19929;-87
2021/10/09 14:40:56;;;;;;;;;;;;;;;22.36;100.00;100185.38;5051708;28;19943;-88
2021/10/09 14:43:23;;;;;;;;;;;;;;;22.06;100.00;100194.09;5036020;28;19925;-87
2021/10/09 14:45:54;;;;;;;;;;;;;;;22.20;100.00;100194.28;5040646;28;19932;-86
2021/10/09 14:48:26;;;;;;;;;;;;;;;22.25;100.00;100196.47;5052723;28;19931;-87
2021/10/09 14:53:49;;;;;;;;;;;;;;;22.27;100.00;100201.69;5041545;28;20015;-93
2021/10/09 15:01:26;;;;;;;;;;;;;;;22.18;100.00;100202.47;5024443;28;20027;-94
2021/10/09 15:18:52;;;;;;;;;;;;;;;21.82;100.00;100196.00;5074218;28;19942;-94
2021/10/09 15:21:22;;;;;;;;;;;;;;;21.73;100.00;100204.50;5007863;28;19960;-94